Time;durP1;ratioP1;P1;durP2;ratioP2;P2;SDS_P1;SDS_P2;PMS_P1;PMS_P2;Temp;Humidity;BMP_temperature;BMP_pressure;BME280_temperature;BME280_humidity;BME280_pressure;Samples;Min_cycle;Max_cycle;Signal;HPM_P1;HPM_P2
2024/03/03 00:00:38;;;;;;;25.20;13.48;;;;;;;;;;5032638;28;20523;-61
2024/03/03 00:03:03;;;;;;;26.90;14.88;;;;;;;;;;5032597;28;20084;-61
2024/03/03 00:05:29;;;;;;;27.98;14.02;;;;;;;;;;5033894;28;20068;-63
2024/03/03 00:07:54;;;;;;;30.27;14.98;;;;;;;;;;5033669;28;20036;-62
2024/03/03 00:10:20;;;;;;;25.83;14.52;;;;;;;;;;5012432;28;20045;-62
2024/03/03 00:12:46;;;;;;;23.77;13.90;;;;;;;;;;5014365;28;20045;-63
2024/03/03 00:15:11;;;;;;;27.67;14.18;;;;;;;;;;5026796;28;20044;-62
2024/03/03 00:17:37;;;;;;;26.95;14.02;;;;;;;;;;5033614;28;20415;-62
2024/03/03 00:20:04;;;;;;;26.05;12.10;;;;;;;;;;5032296;28;20310;-60
2024/03/03 00:22:33;;;;;;;24.33;12.88;;;;;;;;;;5015538;28;20033;-61
2024/03/03 00:24:59;;;;;;;28.20;13.57;;;;;;;;;;5033655;28;20021;-60
2024/03/03 00:27:26;;;;;;;24.23;13.38;;;;;;;;;;5033546;28;20388;-60
2024/03/03 00:29:51;;;;;;;29.92;14.52;;;;;;;;;;5035558;28;20065;-62
2024/03/03 00:32:18;;;;;;;28.65;14.07;;;;;;;;;;5033736;28;20499;-62
2024/03/03 00:34:44;;;;;;;30.88;16.00;;;;;;;;;;5033693;28;20033;-60
2024/03/03 00:37:10;;;;;;;27.45;15.70;;;;;;;;;;5033183;28;20029;-60
2024/03/03 00:39:39;;;;;;;29.77;14.82;;;;;;;;;;5033593;28;20490;-61
2024/03/03 00:42:04;;;;;;;29.83;15.25;;;;;;;;;;5015633;28;20076;-62
2024/03/03 00:44:30;;;;;;;28.48;16.30;;;;;;;;;;5033427;28;20061;-61
2024/03/03 00:46:55;;;;;;;31.00;15.55;;;;;;;;;;5033629;28;20029;-62
2024/03/03 00:49:21;;;;;;;33.00;16.25;;;;;;;;;;5033310;28;20079;-62
2024/03/03 00:51:48;;;;;;;29.83;16.67;;;;;;;;;;5033497;28;20069;-61
2024/03/03 00:54:14;;;;;;;28.88;15.77;;;;;;;;;;5033285;28;20076;-61
2024/03/03 00:56:41;;;;;;;37.30;16.15;;;;;;;;;;4998861;28;20074;-62
2024/03/03 00:59:07;;;;;;;27.90;15.90;;;;;;;;;;5033208;28;20472;-62
2024/03/03 01:01:32;;;;;;;28.50;15.23;;;;;;;;;;5032795;28;20068;-63
2024/03/03 01:03:58;;;;;;;32.45;14.43;;;;;;;;;;5032974;28;20045;-62
2024/03/03 01:06:24;;;;;;;27.88;15.10;;;;;;;;;;5031557;28;20042;-63
2024/03/03 01:08:49;;;;;;;26.02;15.63;;;;;;;;;;5032666;28;20041;-62
2024/03/03 01:11:15;;;;;;;31.20;16.90;;;;;;;;;;5032530;28;20095;-62
2024/03/03 01:13:40;;;;;;;32.42;17.15;;;;;;;;;;5031388;28;20041;-62
2024/03/03 01:16:06;;;;;;;33.38;17.58;;;;;;;;;;5032407;28;20038;-62
2024/03/03 01:18:32;;;;;;;30.10;16.65;;;;;;;;;;5031456;28;20085;-58
2024/03/03 01:20:58;;;;;;;30.15;16.63;;;;;;;;;;4998284;28;20033;-63
2024/03/03 01:23:23;;;;;;;26.52;14.60;;;;;;;;;;5032385;28;20045;-60
2024/03/03 01:25:49;;;;;;;28.33;15.68;;;;;;;;;;5014775;28;20175;-60
2024/03/03 01:28:15;;;;;;;39.47;16.20;;;;;;;;;;5014689;28;20123;-62
2024/03/03 01:30:41;;;;;;;26.75;14.48;;;;;;;;;;5031959;28;20053;-62
2024/03/03 01:33:06;;;;;;;32.60;16.10;;;;;;;;;;5032127;28;20168;-62
2024/03/03 01:35:32;;;;;;;30.05;15.55;;;;;;;;;;5032411;28;20522;-61
2024/03/03 01:37:57;;;;;;;31.63;14.70;;;;;;;;;;5030636;28;20035;-61
2024/03/03 01:40:23;;;;;;;27.35;14.98;;;;;;;;;;5032724;28;20049;-62
2024/03/03 01:42:53;;;;;;;32.58;14.60;;;;;;;;;;5031919;28;20115;-61
2024/03/03 01:45:22;;;;;;;26.52;14.55;;;;;;;;;;5014738;28;20086;-62
2024/03/03 01:47:49;;;;;;;26.83;13.70;;;;;;;;;;5030110;28;20043;-61
2024/03/03 01:50:15;;;;;;;32.60;15.15;;;;;;;;;;5031875;28;20556;-62
2024/03/03 01:52:41;;;;;;;26.50;14.45;;;;;;;;;;5030784;28;20034;-60
2024/03/03 01:55:07;;;;;;;29.25;13.70;;;;;;;;;;5030946;28;20095;-61
2024/03/03 01:57:32;;;;;;;27.40;13.43;;;;;;;;;;5031965;28;20041;-62
2024/03/03 01:59:58;;;;;;;30.05;13.63;;;;;;;;;;5030913;28;20549;-61
2024/03/03 02:02:26;;;;;;;27.83;12.95;;;;;;;;;;5030371;28;20033;-62
2024/03/03 02:04:52;;;;;;;27.15;12.80;;;;;;;;;;5030795;28;20077;-62
2024/03/03 02:07:19;;;;;;;25.60;12.25;;;;;;;;;;5031509;28;20044;-63
2024/03/03 02:09:45;;;;;;;28.08;13.27;;;;;;;;;;5030572;28;20041;-61
2024/03/03 02:12:11;;;;;;;29.35;13.60;;;;;;;;;;5031344;28;20407;-61
2024/03/03 02:14:39;;;;;;;28.95;13.18;;;;;;;;;;5030572;28;20530;-62
2024/03/03 02:17:04;;;;;;;28.73;13.63;;;;;;;;;;5029449;28;20069;-62
2024/03/03 02:19:36;;;;;;;33.70;14.27;;;;;;;;;;5030026;28;20045;-63
2024/03/03 02:22:21;;;;;;;26.08;14.27;;;;;;;;;;5017042;28;20041;-62
2024/03/03 02:24:47;;;;;;;26.52;13.15;;;;;;;;;;5031010;28;20052;-61
2024/03/03 02:27:13;;;;;;;25.52;11.82;;;;;;;;;;5031477;28;20108;-61
2024/03/03 02:29:38;;;;;;;29.23;13.68;;;;;;;;;;5029862;28;20069;-61
2024/03/03 02:32:04;;;;;;;20.60;12.05;;;;;;;;;;5031454;28;20063;-62
2024/03/03 02:34:29;;;;;;;26.25;13.48;;;;;;;;;;5031525;28;20041;-61
2024/03/03 02:36:55;;;;;;;25.50;13.05;;;;;;;;;;5031125;28;20041;-61
2024/03/03 02:39:20;;;;;;;25.75;12.68;;;;;;;;;;5013311;28;20042;-61
2024/03/03 02:41:46;;;;;;;27.35;13.30;;;;;;;;;;5030020;28;20041;-61
2024/03/03 02:44:12;;;;;;;26.23;11.68;;;;;;;;;;5029844;28;20056;-61
2024/03/03 02:46:37;;;;;;;26.48;13.35;;;;;;;;;;5031366;28;20227;-63
2024/03/03 02:49:03;;;;;;;31.42;12.73;;;;;;;;;;5031331;28;20506;-61
2024/03/03 02:51:29;;;;;;;29.20;13.65;;;;;;;;;;5031222;28;20095;-63
2024/03/03 02:53:54;;;;;;;31.05;13.82;;;;;;;;;;5029847;28;20025;-62
2024/03/03 02:56:20;;;;;;;32.00;13.30;;;;;;;;;;5031273;28;20041;-61
2024/03/03 02:58:45;;;;;;;22.88;12.05;;;;;;;;;;5029778;28;20471;-62
2024/03/03 03:01:11;;;;;;;27.17;13.40;;;;;;;;;;5029860;28;20392;-63
2024/03/03 03:03:37;;;;;;;23.20;11.88;;;;;;;;;;5031176;28;20042;-60
2024/03/03 03:06:02;;;;;;;29.85;12.85;;;;;;;;;;5031083;28;20065;-62
2024/03/03 03:08:28;;;;;;;24.63;12.38;;;;;;;;;;5029811;28;20037;-62
2024/03/03 03:10:54;;;;;;;24.05;12.18;;;;;;;;;;5029508;28;20140;-62
2024/03/03 03:13:20;;;;;;;23.83;12.50;;;;;;;;;;5029947;28;20037;-63
2024/03/03 03:15:46;;;;;;;31.45;13.63;;;;;;;;;;5013069;28;20034;-61
2024/03/03 03:18:11;;;;;;;22.80;12.38;;;;;;;;;;5031179;28;20030;-62
2024/03/03 03:20:37;;;;;;;21.98;11.93;;;;;;;;;;5013128;28;20132;-63
2024/03/03 03:23:02;;;;;;;26.65;13.38;;;;;;;;;;5029491;28;20033;-62
2024/03/03 03:25:28;;;;;;;27.02;12.75;;;;;;;;;;5031071;28;20033;-62
2024/03/03 03:27:53;;;;;;;24.50;12.95;;;;;;;;;;5030937;28;20392;-62
2024/03/03 03:30:19;;;;;;;31.23;13.20;;;;;;;;;;5033002;28;20073;-62
2024/03/03 03:32:45;;;;;;;33.78;13.85;;;;;;;;;;5033463;28;20033;-61
2024/03/03 03:35:10;;;;;;;21.85;12.45;;;;;;;;;;5035039;28;20080;-61
2024/03/03 03:37:37;;;;;;;21.50;12.32;;;;;;;;;;5033304;28;20048;-62
2024/03/03 03:40:09;;;;;;;22.45;13.02;;;;;;;;;;5033074;28;20053;-62
2024/03/03 03:42:35;;;;;;;27.40;12.70;;;;;;;;;;5034752;28;20029;-60
2024/03/03 03:45:03;;;;;;;22.55;13.50;;;;;;;;;;5034647;28;20041;-62
2024/03/03 03:47:29;;;;;;;24.27;12.48;;;;;;;;;;5033354;28;20064;-62
2024/03/03 03:49:55;;;;;;;28.10;12.52;;;;;;;;;;5033233;28;20087;-62
2024/03/03 03:52:20;;;;;;;24.42;12.15;;;;;;;;;;5034027;28;20037;-62
2024/03/03 03:54:46;;;;;;;26.98;11.48;;;;;;;;;;5034766;28;20091;-62
2024/03/03 03:57:11;;;;;;;19.17;11.50;;;;;;;;;;5034193;28;20506;-61
2024/03/03 03:59:37;;;;;;;29.27;12.18;;;;;;;;;;5034602;28;20069;-62
2024/03/03 04:02:05;;;;;;;26.15;12.68;;;;;;;;;;5032669;28;20052;-63
2024/03/03 04:04:34;;;;;;;27.70;11.85;;;;;;;;;;5034435;28;20404;-61
2024/03/03 04:07:01;;;;;;;20.65;11.57;;;;;;;;;;5032545;28;20082;-61
2024/03/03 04:09:27;;;;;;;22.98;12.15;;;;;;;;;;5032761;28;20045;-62
2024/03/03 04:11:53;;;;;;;23.92;13.35;;;;;;;;;;5032648;28;20494;-63
2024/03/03 04:14:19;;;;;;;25.90;12.52;;;;;;;;;;5034131;28;20045;-63
2024/03/03 04:16:44;;;;;;;22.05;12.05;;;;;;;;;;5032595;28;20033;-63
2024/03/03 04:19:10;;;;;;;27.63;12.50;;;;;;;;;;5034052;28;20038;-62
2024/03/03 04:21:41;;;;;;;20.30;12.32;;;;;;;;;;5033566;28;20029;-62
2024/03/03 04:24:07;;;;;;;26.83;13.32;;;;;;;;;;5032433;28;20077;-62
2024/03/03 04:26:33;;;;;;;29.30;12.32;;;;;;;;;;5033532;28;20119;-65
2024/03/03 04:28:58;;;;;;;27.80;12.15;;;;;;;;;;5033714;28;20042;-62
2024/03/03 04:31:24;;;;;;;27.20;12.68;;;;;;;;;;5033334;28;20053;-61
2024/03/03 04:33:49;;;;;;;21.70;11.70;;;;;;;;;;5033340;28;20044;-61
2024/03/03 04:36:15;;;;;;;22.02;11.88;;;;;;;;;;5033668;28;20128;-66
2024/03/03 04:38:40;;;;;;;22.15;12.23;;;;;;;;;;5033151;28;20041;-64
2024/03/03 04:41:16;;;;;;;25.85;12.73;;;;;;;;;;5031218;28;20056;-64
2024/03/03 04:43:42;;;;;;;25.17;13.20;;;;;;;;;;5014688;28;20123;-62
2024/03/03 04:46:08;;;;;;;23.95;13.90;;;;;;;;;;5032188;28;20491;-63
2024/03/03 04:48:34;;;;;;;27.25;13.38;;;;;;;;;;5031678;28;20045;-63
2024/03/03 04:51:00;;;;;;;21.83;13.35;;;;;;;;;;5033247;28;20046;-63
2024/03/03 04:53:25;;;;;;;21.50;12.32;;;;;;;;;;5032810;28;20040;-60
2024/03/03 04:55:51;;;;;;;23.85;11.40;;;;;;;;;;5015411;28;20033;-62
2024/03/03 04:58:17;;;;;;;26.30;12.40;;;;;;;;;;5032696;28;20479;-62
2024/03/03 05:00:42;;;;;;;25.13;12.65;;;;;;;;;;5031787;28;20073;-63
2024/03/03 05:03:09;;;;;;;20.30;11.90;;;;;;;;;;5032687;28;20021;-61
2024/03/03 05:05:35;;;;;;;21.20;11.80;;;;;;;;;;5032937;28;20091;-63
2024/03/03 05:08:01;;;;;;;23.15;11.85;;;;;;;;;;5032356;28;20029;-63
2024/03/03 05:10:26;;;;;;;24.35;12.50;;;;;;;;;;5031290;28;20052;-64
2024/03/03 05:12:51;;;;;;;25.58;12.77;;;;;;;;;;5032566;28;20136;-63
2024/03/03 05:15:17;;;;;;;22.23;12.13;;;;;;;;;;5032648;28;20044;-64
2024/03/03 05:17:42;;;;;;;20.98;12.07;;;;;;;;;;5032684;28;20515;-61
2024/03/03 05:20:08;;;;;;;26.05;11.57;;;;;;;;;;5031419;28;20510;-61
2024/03/03 05:22:34;;;;;;;24.50;13.48;;;;;;;;;;5032670;28;20368;-62
2024/03/03 05:24:59;;;;;;;36.28;14.40;;;;;;;;;;5030847;28;20049;-62
2024/03/03 05:27:25;;;;;;;26.67;13.18;;;;;;;;;;5031163;28;20048;-62
2024/03/03 05:29:53;;;;;;;30.65;14.40;;;;;;;;;;5032343;28;20063;-63
2024/03/03 05:32:19;;;;;;;28.27;14.00;;;;;;;;;;5032517;28;20042;-62
2024/03/03 05:34:44;;;;;;;37.95;15.80;;;;;;;;;;5031182;28;20056;-62
2024/03/03 05:37:10;;;;;;;32.15;15.18;;;;;;;;;;5032280;28;20040;-60
2024/03/03 05:39:36;;;;;;;21.92;12.52;;;;;;;;;;5031009;28;20193;-62
2024/03/03 05:42:02;;;;;;;24.92;12.60;;;;;;;;;;5032210;28;20056;-63
2024/03/03 05:44:28;;;;;;;22.13;12.38;;;;;;;;;;5032216;28;20400;-61
2024/03/03 05:46:54;;;;;;;20.23;10.88;;;;;;;;;;4998270;28;20041;-62
2024/03/03 05:49:20;;;;;;;24.33;11.05;;;;;;;;;;5060698;28;20033;-63
2024/03/03 05:51:45;;;;;;;20.73;11.10;;;;;;;;;;5030944;28;20087;-60
2024/03/03 05:54:11;;;;;;;22.77;11.05;;;;;;;;;;5031887;28;20033;-61
2024/03/03 05:56:37;;;;;;;21.92;11.60;;;;;;;;;;5030614;28;20091;-61
2024/03/03 05:59:03;;;;;;;20.38;10.77;;;;;;;;;;5030361;28;20034;-62
2024/03/03 06:01:29;;;;;;;22.33;11.82;;;;;;;;;;5031664;28;20040;-61
2024/03/03 06:03:54;;;;;;;25.08;11.35;;;;;;;;;;5032006;28;20132;-60
2024/03/03 06:06:20;;;;;;;24.85;13.18;;;;;;;;;;5030970;28;20037;-60
2024/03/03 06:08:45;;;;;;;20.70;11.10;;;;;;;;;;5030249;28;20388;-61
2024/03/03 06:11:11;;;;;;;22.42;11.38;;;;;;;;;;5030345;28;20491;-62
2024/03/03 06:13:36;;;;;;;25.10;11.77;;;;;;;;;;5031554;28;20518;-61
2024/03/03 06:16:02;;;;;;;20.45;11.40;;;;;;;;;;5031417;28;20033;-60
2024/03/03 06:18:28;;;;;;;20.17;11.75;;;;;;;;;;4996628;28;20041;-62
2024/03/03 06:20:54;;;;;;;21.02;11.43;;;;;;;;;;5028788;28;20037;-63
2024/03/03 06:23:20;;;;;;;22.15;11.15;;;;;;;;;;5030822;28;20200;-62
2024/03/03 06:25:45;;;;;;;23.23;12.05;;;;;;;;;;5029934;28;20036;-63
2024/03/03 06:28:11;;;;;;;27.35;11.88;;;;;;;;;;5031359;28;20565;-62
2024/03/03 06:30:36;;;;;;;29.52;11.82;;;;;;;;;;5030087;28;20510;-62
2024/03/03 06:33:02;;;;;;;20.83;10.90;;;;;;;;;;5031155;28;20485;-63
2024/03/03 06:35:28;;;;;;;20.60;11.25;;;;;;;;;;5013700;28;20043;-62
2024/03/03 06:37:53;;;;;;;23.67;11.95;;;;;;;;;;5031402;28;20478;-62
2024/03/03 06:40:19;;;;;;;20.48;11.52;;;;;;;;;;5031214;28;20044;-63
2024/03/03 06:42:45;;;;;;;22.60;11.18;;;;;;;;;;5029812;28;20037;-61
2024/03/03 06:45:11;;;;;;;21.52;11.60;;;;;;;;;;5027555;28;20495;-62
2024/03/03 06:47:37;;;;;;;26.75;13.30;;;;;;;;;;5010563;28;20029;-63
2024/03/03 06:50:04;;;;;;;23.15;12.65;;;;;;;;;;5025786;28;20150;-60
2024/03/03 06:52:33;;;;;;;21.92;12.25;;;;;;;;;;5025687;28;20036;-61
2024/03/03 06:54:59;;;;;;;29.00;13.35;;;;;;;;;;5027452;28;20057;-63
2024/03/03 06:57:25;;;;;;;21.65;11.95;;;;;;;;;;5054790;28;20041;-68
2024/03/03 06:59:51;;;;;;;24.83;12.13;;;;;;;;;;5031141;28;20040;-62
2024/03/03 07:02:17;;;;;;;23.05;11.82;;;;;;;;;;5031236;28;20036;-63
2024/03/03 07:04:42;;;;;;;20.90;12.43;;;;;;;;;;4999824;28;20048;-61
2024/03/03 07:07:08;;;;;;;26.90;12.60;;;;;;;;;;5017347;28;20038;-63
2024/03/03 07:09:35;;;;;;;20.77;10.77;;;;;;;;;;5035136;28;20037;-60
2024/03/03 07:12:01;;;;;;;22.55;12.38;;;;;;;;;;5034652;28;20120;-61
2024/03/03 07:14:27;;;;;;;21.40;12.18;;;;;;;;;;5035110;28;20046;-61
2024/03/03 07:16:53;;;;;;;21.88;11.05;;;;;;;;;;5033324;28;20044;-62
2024/03/03 07:19:19;;;;;;;20.33;11.68;;;;;;;;;;5033387;28;20033;-59
2024/03/03 07:21:44;;;;;;;28.38;12.80;;;;;;;;;;5033544;28;20029;-61
2024/03/03 07:24:10;;;;;;;31.92;13.63;;;;;;;;;;5034844;28;20487;-60
2024/03/03 07:26:36;;;;;;;25.98;12.68;;;;;;;;;;5034752;28;20495;-63
2024/03/03 07:29:03;;;;;;;33.00;14.43;;;;;;;;;;5033187;28;20076;-62
2024/03/03 07:31:28;;;;;;;32.38;16.42;;;;;;;;;;5034285;28;20058;-60
2024/03/03 07:33:54;;;;;;;36.28;16.52;;;;;;;;;;5033960;28;20041;-62
2024/03/03 07:36:20;;;;;;;30.95;17.30;;;;;;;;;;5032228;28;20124;-64
2024/03/03 07:38:45;;;;;;;25.90;13.60;;;;;;;;;;5032028;28;20037;-62
2024/03/03 07:41:11;;;;;;;19.77;11.63;;;;;;;;;;5033516;28;20412;-59
2024/03/03 07:43:36;;;;;;;24.35;12.63;;;;;;;;;;5031124;28;20103;-60
2024/03/03 07:46:02;;;;;;;24.48;11.68;;;;;;;;;;5016388;28;20055;-60
2024/03/03 07:48:28;;;;;;;31.67;11.80;;;;;;;;;;5034092;28;20143;-61
2024/03/03 07:50:54;;;;;;;22.40;11.52;;;;;;;;;;5034444;28;20045;-62
2024/03/03 07:53:20;;;;;;;21.00;11.10;;;;;;;;;;5033874;28;20049;-62
2024/03/03 07:55:46;;;;;;;21.27;12.15;;;;;;;;;;5034092;28;20033;-63
2024/03/03 07:58:12;;;;;;;18.30;11.18;;;;;;;;;;5034029;28;20045;-62
2024/03/03 08:00:38;;;;;;;23.15;12.05;;;;;;;;;;5016576;28;20037;-62
2024/03/03 08:03:04;;;;;;;23.23;13.10;;;;;;;;;;5032421;28;20522;-62
2024/03/03 08:05:32;;;;;;;21.05;10.70;;;;;;;;;;5033643;28;20044;-61
2024/03/03 08:07:58;;;;;;;22.73;10.95;;;;;;;;;;5033696;28;20140;-60
2024/03/03 08:10:23;;;;;;;19.85;10.30;;;;;;;;;;5033440;28;20115;-63
2024/03/03 08:12:49;;;;;;;18.08;10.05;;;;;;;;;;5033494;28;20560;-60
2024/03/03 08:15:14;;;;;;;20.67;10.88;;;;;;;;;;5033202;28;20120;-60
2024/03/03 08:17:40;;;;;;;26.55;10.43;;;;;;;;;;5033750;28;20094;-61
2024/03/03 08:20:06;;;;;;;19.85;10.30;;;;;;;;;;5032516;28;20046;-62
2024/03/03 08:22:32;;;;;;;22.63;10.10;;;;;;;;;;5032275;28;20114;-63
2024/03/03 08:24:57;;;;;;;15.00;9.75;;;;;;;;;;5033396;28;20030;-60
2024/03/03 08:27:23;;;;;;;19.00;9.50;;;;;;;;;;5032360;28;20041;-63
2024/03/03 08:29:48;;;;;;;17.60;10.18;;;;;;;;;;5033413;28;20061;-60
2024/03/03 08:32:14;;;;;;;17.75;10.40;;;;;;;;;;5033486;28;20522;-61
2024/03/03 08:34:40;;;;;;;23.98;12.85;;;;;;;;;;5033654;28;20041;-58
2024/03/03 08:37:05;;;;;;;21.23;11.00;;;;;;;;;;5032231;28;20037;-60
2024/03/03 08:39:31;;;;;;;18.40;10.60;;;;;;;;;;5032329;28;20167;-60
2024/03/03 08:41:56;;;;;;;20.83;10.65;;;;;;;;;;5032051;28;20041;-60
2024/03/03 08:44:22;;;;;;;17.17;9.55;;;;;;;;;;5015596;28;20048;-60
2024/03/03 08:46:50;;;;;;;15.07;10.45;;;;;;;;;;5010174;28;20033;-60
2024/03/03 08:49:16;;;;;;;21.33;10.05;;;;;;;;;;5033187;28;20124;-60
2024/03/03 08:51:42;;;;;;;21.40;10.32;;;;;;;;;;5032507;28;20135;-62
2024/03/03 08:54:08;;;;;;;17.50;9.90;;;;;;;;;;5032598;28;20041;-60
2024/03/03 08:56:34;;;;;;;16.20;10.35;;;;;;;;;;5031347;28;20037;-60
2024/03/03 08:59:00;;;;;;;20.20;9.65;;;;;;;;;;5032655;28;20510;-60
2024/03/03 09:01:25;;;;;;;18.83;9.60;;;;;;;;;;5032131;28;20037;-60
2024/03/03 09:03:51;;;;;;;13.98;8.10;;;;;;;;;;5028345;28;20084;-61
2024/03/03 09:06:16;;;;;;;15.68;8.30;;;;;;;;;;5032373;28;20034;-61
2024/03/03 09:08:44;;;;;;;15.00;6.82;;;;;;;;;;5032677;28;20038;-59
2024/03/03 09:11:11;;;;;;;14.32;7.45;;;;;;;;;;5032100;28;20114;-61
2024/03/03 09:13:37;;;;;;;10.50;5.97;;;;;;;;;;5030895;28;20041;-59
2024/03/03 09:16:03;;;;;;;14.20;7.00;;;;;;;;;;5030568;28;20071;-62
2024/03/03 09:18:28;;;;;;;11.50;7.53;;;;;;;;;;5013262;28;20076;-60
2024/03/03 09:20:54;;;;;;;14.15;7.35;;;;;;;;;;5031296;28;20080;-61
2024/03/03 09:23:20;;;;;;;12.93;7.22;;;;;;;;;;5029758;28;20041;-61
2024/03/03 09:25:47;;;;;;;13.15;7.30;;;;;;;;;;5029720;28;20037;-61
2024/03/03 09:28:13;;;;;;;13.57;8.23;;;;;;;;;;5029318;28;20041;-61
2024/03/03 09:30:39;;;;;;;11.55;6.63;;;;;;;;;;5029886;28;20053;-58
2024/03/03 09:33:04;;;;;;;13.43;6.95;;;;;;;;;;5030350;28;20037;-60
2024/03/03 09:35:30;;;;;;;14.85;6.65;;;;;;;;;;5032314;28;20483;-61
2024/03/03 09:37:55;;;;;;;11.90;6.43;;;;;;;;;;5013917;28;20041;-59
2024/03/03 09:40:22;;;;;;;8.73;5.90;;;;;;;;;;5031561;28;20175;-61
2024/03/03 09:42:49;;;;;;;11.52;6.00;;;;;;;;;;5031754;28;20080;-61
2024/03/03 09:45:18;;;;;;;8.30;5.75;;;;;;;;;;5013581;28;20152;-60
2024/03/03 09:47:45;;;;;;;8.50;5.70;;;;;;;;;;5030686;28;20029;-62
2024/03/03 09:50:12;;;;;;;10.90;6.28;;;;;;;;;;5029606;28;20045;-60
2024/03/03 09:52:42;;;;;;;10.93;5.82;;;;;;;;;;5030905;28;20037;-61
2024/03/03 09:55:11;;;;;;;11.57;6.50;;;;;;;;;;5031243;28;20033;-62
2024/03/03 09:57:38;;;;;;;11.18;6.60;;;;;;;;;;5031206;28;20175;-61
2024/03/03 10:00:04;;;;;;;11.05;6.55;;;;;;;;;;5029782;28;20033;-61
2024/03/03 10:02:37;;;;;;;12.48;6.18;;;;;;;;;;5030709;28;20091;-59
2024/03/03 10:05:04;;;;;;;10.50;6.85;;;;;;;;;;5031202;28;20041;-61
2024/03/03 10:07:34;;;;;;;14.13;6.82;;;;;;;;;;5030902;28;20091;-60
2024/03/03 10:10:03;;;;;;;12.35;6.80;;;;;;;;;;5030593;28;20033;-60
2024/03/03 10:12:33;;;;;;;10.57;6.55;;;;;;;;;;5030390;28;20037;-61
2024/03/03 10:15:00;;;;;;;12.63;6.15;;;;;;;;;;5030240;28;20033;-61
2024/03/03 10:17:25;;;;;;;9.45;6.28;;;;;;;;;;5013420;28;20145;-61
2024/03/03 10:19:51;;;;;;;10.73;6.13;;;;;;;;;;5031357;28;20065;-61
2024/03/03 10:22:20;;;;;;;13.35;6.20;;;;;;;;;;5029959;28;20138;-62
2024/03/03 10:24:46;;;;;;;11.10;7.22;;;;;;;;;;5029637;28;20071;-61
2024/03/03 10:27:18;;;;;;;13.13;6.47;;;;;;;;;;5029777;28;20045;-59
2024/03/03 10:29:44;;;;;;;10.30;6.18;;;;;;;;;;5030635;28;20121;-61
2024/03/03 10:32:10;;;;;;;12.38;5.90;;;;;;;;;;5030572;28;20088;-63
2024/03/03 10:34:39;;;;;;;10.32;6.75;;;;;;;;;;5030681;28;20048;-61
2024/03/03 10:37:05;;;;;;;12.68;6.65;;;;;;;;;;5029277;28;20034;-61
2024/03/03 10:39:35;;;;;;;11.52;6.10;;;;;;;;;;5029396;28;20052;-60
2024/03/03 10:42:05;;;;;;;9.73;6.32;;;;;;;;;;5030749;28;20037;-61
2024/03/03 10:44:31;;;;;;;11.65;7.15;;;;;;;;;;5030087;28;20088;-63
2024/03/03 10:46:57;;;;;;;17.38;7.40;;;;;;;;;;5029272;28;20078;-62
2024/03/03 10:49:25;;;;;;;10.00;6.30;;;;;;;;;;5030335;28;20498;-62
2024/03/03 10:51:51;;;;;;;13.13;6.13;;;;;;;;;;5029775;28;20053;-61
2024/03/03 10:54:18;;;;;;;11.88;6.40;;;;;;;;;;5029487;28;20044;-62
2024/03/03 10:56:44;;;;;;;8.68;5.63;;;;;;;;;;5030955;28;20514;-62
2024/03/03 10:59:10;;;;;;;9.10;5.07;;;;;;;;;;5029556;28;20033;-61
2024/03/03 11:01:36;;;;;;;9.73;5.55;;;;;;;;;;5029919;28;20034;-63
2024/03/03 11:04:04;;;;;;;13.85;5.47;;;;;;;;;;5030940;28;20044;-62
2024/03/03 11:06:30;;;;;;;12.20;4.80;;;;;;;;;;5029499;28;20030;-62
2024/03/03 11:08:57;;;;;;;9.02;4.95;;;;;;;;;;5031039;28;20037;-63
2024/03/03 11:11:25;;;;;;;13.00;7.35;;;;;;;;;;4996544;28;20426;-62
2024/03/03 11:13:59;;;;;;;8.10;4.65;;;;;;;;;;5031101;28;20049;-64
2024/03/03 11:16:28;;;;;;;7.90;4.53;;;;;;;;;;5029776;28;20406;-62
2024/03/03 11:18:59;;;;;;;8.50;4.35;;;;;;;;;;5029794;28;20388;-62
2024/03/03 11:21:30;;;;;;;8.30;5.10;;;;;;;;;;5031008;28;20411;-62
2024/03/03 11:24:04;;;;;;;10.73;5.75;;;;;;;;;;5030541;28;20034;-62
2024/03/03 11:26:46;;;;;;;10.00;6.53;;;;;;;;;;5029080;28;20056;-62
2024/03/03 11:29:13;;;;;;;12.95;6.45;;;;;;;;;;4996360;28;20128;-63
2024/03/03 11:31:40;;;;;;;11.07;6.53;;;;;;;;;;5029241;28;20499;-61
2024/03/03 11:34:07;;;;;;;12.02;6.82;;;;;;;;;;5013015;28;20136;-61
2024/03/03 11:36:33;;;;;;;11.18;6.30;;;;;;;;;;5029638;28;20037;-62
2024/03/03 11:39:09;;;;;;;10.20;6.03;;;;;;;;;;5030884;28;20045;-64
2024/03/03 11:41:38;;;;;;;9.48;5.50;;;;;;;;;;5028755;28;20056;-63
2024/03/03 11:44:04;;;;;;;7.93;4.50;;;;;;;;;;5030307;28;20581;-61
2024/03/03 11:46:49;;;;;;;9.95;5.85;;;;;;;;;;5029238;28;20033;-61
2024/03/03 11:49:16;;;;;;;9.43;5.50;;;;;;;;;;5029333;28;20117;-64
2024/03/03 11:51:41;;;;;;;10.75;5.53;;;;;;;;;;5032804;28;20513;-61
2024/03/03 11:54:07;;;;;;;13.13;6.13;;;;;;;;;;5016604;28;20037;-61
2024/03/03 11:56:51;;;;;;;6.78;5.35;;;;;;;;;;5032098;28;20533;-63
2024/03/03 11:59:17;;;;;;;6.82;4.40;;;;;;;;;;5032107;28;20115;-61
2024/03/03 12:01:47;;;;;;;7.82;5.20;;;;;;;;;;5032138;28;20061;-61
2024/03/03 12:04:13;;;;;;;9.70;5.67;;;;;;;;;;5031536;28;20045;-60
2024/03/03 12:06:42;;;;;;;10.48;5.95;;;;;;;;;;5032766;28;20276;-64
2024/03/03 12:09:09;;;;;;;11.18;5.72;;;;;;;;;;5031993;28;20478;-63
2024/03/03 12:11:34;;;;;;;11.63;5.13;;;;;;;;;;5033075;28;20138;-63
2024/03/03 12:14:00;;;;;;;10.85;4.93;;;;;;;;;;5033948;28;20073;-62
2024/03/03 12:16:25;;;;;;;11.18;5.60;;;;;;;;;;5032697;28;20061;-63
2024/03/03 12:18:51;;;;;;;11.23;5.68;;;;;;;;;;5032247;28;20510;-62
2024/03/03 12:21:19;;;;;;;8.65;5.47;;;;;;;;;;5015846;28;20041;-62
2024/03/03 12:23:45;;;;;;;8.45;5.10;;;;;;;;;;5031654;28;20057;-61
2024/03/03 12:26:10;;;;;;;7.85;4.90;;;;;;;;;;5031508;28;20037;-63
2024/03/03 12:28:36;;;;;;;8.70;4.88;;;;;;;;;;5031838;28;20088;-61
2024/03/03 12:31:01;;;;;;;8.32;5.35;;;;;;;;;;5029676;28;20067;-61
2024/03/03 12:33:28;;;;;;;9.45;5.50;;;;;;;;;;5012951;28;20076;-64
2024/03/03 12:35:53;;;;;;;7.18;4.97;;;;;;;;;;5030908;28;20041;-63
2024/03/03 12:38:19;;;;;;;9.65;4.93;;;;;;;;;;5031918;28;20476;-62
2024/03/03 12:40:49;;;;;;;11.15;5.53;;;;;;;;;;5033596;28;20475;-63
2024/03/03 12:43:15;;;;;;;9.20;4.95;;;;;;;;;;5033401;28;20037;-65
2024/03/03 12:45:44;;;;;;;9.85;6.03;;;;;;;;;;5033536;28;20410;-63
2024/03/03 12:48:10;;;;;;;12.27;5.53;;;;;;;;;;5033075;28;20044;-61
2024/03/03 12:50:35;;;;;;;9.93;5.85;;;;;;;;;;5034006;28;20049;-63
2024/03/03 12:53:01;;;;;;;9.25;5.20;;;;;;;;;;5033261;28;20043;-61
2024/03/03 12:55:27;;;;;;;10.93;4.57;;;;;;;;;;5031930;28;20077;-61
2024/03/03 12:57:53;;;;;;;6.72;4.75;;;;;;;;;;5031686;28;20033;-63
2024/03/03 13:00:19;;;;;;;6.57;4.57;;;;;;;;;;5031545;28;20133;-59
2024/03/03 13:02:45;;;;;;;7.93;4.80;;;;;;;;;;5031653;28;20037;-60
2024/03/03 13:05:11;;;;;;;9.60;4.50;;;;;;;;;;5031502;28;20042;-61
2024/03/03 13:07:37;;;;;;;8.00;4.63;;;;;;;;;;5032826;28;20044;-63
2024/03/03 13:10:18;;;;;;;8.63;4.80;;;;;;;;;;5032694;28;20029;-64
2024/03/03 13:12:44;;;;;;;7.78;4.90;;;;;;;;;;5032898;28;20041;-61
2024/03/03 13:15:10;;;;;;;8.38;5.13;;;;;;;;;;5033083;28;20506;-62
2024/03/03 13:17:35;;;;;;;10.27;4.80;;;;;;;;;;5031809;28;20037;-63
2024/03/03 13:20:01;;;;;;;9.52;4.65;;;;;;;;;;5032927;28;20042;-62
2024/03/03 13:22:26;;;;;;;11.75;5.13;;;;;;;;;;5032565;28;20041;-65
2024/03/03 13:25:00;;;;;;;7.70;4.80;;;;;;;;;;5031393;28;20152;-64
2024/03/03 13:27:29;;;;;;;6.55;4.43;;;;;;;;;;5032520;28;20037;-64
2024/03/03 13:29:55;;;;;;;9.32;4.85;;;;;;;;;;5014469;28;20076;-65
2024/03/03 13:32:20;;;;;;;10.50;4.57;;;;;;;;;;5032086;28;20033;-62
2024/03/03 13:34:46;;;;;;;9.77;4.90;;;;;;;;;;5029573;28;20103;-61
2024/03/03 13:37:12;;;;;;;9.23;5.13;;;;;;;;;;5030723;28;20069;-63
2024/03/03 13:39:38;;;;;;;6.55;3.92;;;;;;;;;;5031777;28;20173;-62
2024/03/03 13:42:04;;;;;;;8.80;4.78;;;;;;;;;;5031467;28;20554;-64
2024/03/03 13:44:29;;;;;;;7.97;4.60;;;;;;;;;;5030740;28;20052;-61
2024/03/03 13:46:55;;;;;;;8.98;5.03;;;;;;;;;;5032145;28;20414;-63
2024/03/03 13:49:20;;;;;;;8.52;4.82;;;;;;;;;;5030858;28;20041;-62
2024/03/03 13:51:46;;;;;;;7.65;5.22;;;;;;;;;;5030787;28;20045;-61
2024/03/03 13:54:14;;;;;;;10.98;4.97;;;;;;;;;;5014286;28;20033;-62
2024/03/03 13:56:40;;;;;;;8.23;4.60;;;;;;;;;;5030429;28;20061;-61
2024/03/03 13:59:06;;;;;;;14.45;5.00;;;;;;;;;;5031981;28;20073;-62
2024/03/03 14:01:32;;;;;;;8.95;5.03;;;;;;;;;;5030373;28;20034;-62
2024/03/03 14:03:58;;;;;;;9.57;5.28;;;;;;;;;;5031591;28;20401;-63
2024/03/03 14:06:24;;;;;;;10.30;5.53;;;;;;;;;;5031719;28;20040;-61
2024/03/03 14:08:50;;;;;;;13.32;4.85;;;;;;;;;;5028341;28;20041;-60
2024/03/03 14:11:15;;;;;;;12.60;5.10;;;;;;;;;;5031069;28;20091;-63
2024/03/03 14:13:40;;;;;;;8.68;4.60;;;;;;;;;;5030777;28;20044;-58
2024/03/03 14:16:07;;;;;;;7.85;5.13;;;;;;;;;;5031195;28;20107;-59
2024/03/03 14:18:33;;;;;;;8.93;4.97;;;;;;;;;;5020282;28;20128;-61